sensor_id;sensor_type;location;lat;lon;timestamp;temperature;humidity
8130;DHT22;4106;52.532;13.408;2022-08-21T00:01:25;19.60;99.90
8130;DHT22;4106;52.532;13.408;2022-08-21T00:03:52;19.60;99.90
8130;DHT22;4106;52.532;13.408;2022-08-21T00:06:20;19.60;99.90
8130;DHT22;4106;52.532;13.408;2022-08-21T00:08:48;19.60;99.90
8130;DHT22;4106;52.532;13.408;2022-08-21T00:11:16;19.60;99.90
8130;DHT22;4106;52.532;13.408;2022-08-21T00:13:44;19.60;99.90
8130;DHT22;4106;52.532;13.408;2022-08-21T00:16:11;19.60;99.90
8130;DHT22;4106;52.532;13.408;2022-08-21T00:18:38;19.50;99.90
8130;DHT22;4106;52.532;13.408;2022-08-21T00:21:05;19.50;99.90
8130;DHT22;4106;52.532;13.408;2022-08-21T00:23:33;19.50;99.90
8130;DHT22;4106;52.532;13.408;2022-08-21T00:26:00;19.50;99.90
8130;DHT22;4106;52.532;13.408;2022-08-21T00:28:27;19.50;99.90
8130;DHT22;4106;52.532;13.408;2022-08-21T00:30:54;19.50;99.90
8130;DHT22;4106;52.532;13.408;2022-08-21T00:33:21;19.40;99.90
8130;DHT22;4106;52.532;13.408;2022-08-21T00:35:48;19.50;99.90
8130;DHT22;4106;52.532;13.408;2022-08-21T00:38:17;19.40;99.90
8130;DHT22;4106;52.532;13.408;2022-08-21T00:40:49;19.40;99.90
8130;DHT22;4106;52.532;13.408;2022-08-21T00:43:14;19.40;99.90
8130;DHT22;4106;52.532;13.408;2022-08-21T00:45:42;19.40;99.90
8130;DHT22;4106;52.532;13.408;2022-08-21T00:48:10;19.40;99.90
8130;DHT22;4106;52.532;13.408;2022-08-21T00:50:40;19.40;99.90
8130;DHT22;4106;52.532;13.408;2022-08-21T00:53:05;19.30;99.90
8130;DHT22;4106;52.532;13.408;2022-08-21T00:55:32;19.30;99.90
8130;DHT22;4106;52.532;13.408;2022-08-21T00:58:00;19.30;99.90
8130;DHT22;4106;52.532;13.408;2022-08-21T01:00:28;19.30;99.90
8130;DHT22;4106;52.532;13.408;2022-08-21T01:02:56;19.30;99.90
8130;DHT22;4106;52.532;13.408;2022-08-21T01:05:24;19.20;99.90
8130;DHT22;4106;52.532;13.408;2022-08-21T01:07:52;19.30;99.90
8130;DHT22;4106;52.532;13.408;2022-08-21T01:10:19;19.20;99.90
8130;DHT22;4106;52.532;13.408;2022-08-21T01:12:46;19.30;99.90
8130;DHT22;4106;52.532;13.408;2022-08-21T01:15:13;19.20;99.90
8130;DHT22;4106;52.532;13.408;2022-08-21T01:17:40;19.10;99.90
8130;DHT22;4106;52.532;13.408;2022-08-21T01:20:10;19.00;99.90
8130;DHT22;4106;52.532;13.408;2022-08-21T01:22:37;19.00;99.90
8130;DHT22;4106;52.532;13.408;2022-08-21T01:25:06;18.90;99.90
8130;DHT22;4106;52.532;13.408;2022-08-21T01:27:33;18.80;99.90
8130;DHT22;4106;52.532;13.408;2022-08-21T01:30:04;18.80;99.90
8130;DHT22;4106;52.532;13.408;2022-08-21T01:32:29;18.80;99.90
8130;DHT22;4106;52.532;13.408;2022-08-21T01:34:56;18.70;99.90
8130;DHT22;4106;52.532;13.408;2022-08-21T01:37:23;18.80;99.90
8130;DHT22;4106;52.532;13.408;2022-08-21T01:39:50;18.70;99.90
8130;DHT22;4106;52.532;13.408;2022-08-21T01:42:17;18.70;99.90
8130;DHT22;4106;52.532;13.408;2022-08-21T01:44:45;18.70;99.90
8130;DHT22;4106;52.532;13.408;2022-08-21T01:47:13;18.60;99.90
8130;DHT22;4106;52.532;13.408;2022-08-21T01:49:39;18.50;99.90
8130;DHT22;4106;52.532;13.408;2022-08-21T01:52:07;18.50;99.90
8130;DHT22;4106;52.532;13.408;2022-08-21T01:54:33;18.50;99.90
8130;DHT22;4106;52.532;13.408;2022-08-21T01:57:02;18.50;99.90
8130;DHT22;4106;52.532;13.408;2022-08-21T01:59:29;18.50;99.90
8130;DHT22;4106;52.532;13.408;2022-08-21T02:01:57;18.50;99.90
8130;DHT22;4106;52.532;13.408;2022-08-21T02:04:25;18.50;99.90
8130;DHT22;4106;52.532;13.408;2022-08-21T02:06:52;18.40;99.90
8130;DHT22;4106;52.532;13.408;2022-08-21T02:09:19;18.40;99.90
8130;DHT22;4106;52.532;13.408;2022-08-21T02:11:47;18.30;99.90
8130;DHT22;4106;52.532;13.408;2022-08-21T02:14:14;18.30;99.90
8130;DHT22;4106;52.532;13.408;2022-08-21T02:16:42;18.30;99.90
8130;DHT22;4106;52.532;13.408;2022-08-21T02:19:09;18.30;99.90
8130;DHT22;4106;52.532;13.408;2022-08-21T02:21:36;18.30;99.90
8130;DHT22;4106;52.532;13.408;2022-08-21T02:24:03;18.30;99.90
8130;DHT22;4106;52.532;13.408;2022-08-21T02:26:30;18.20;99.90
8130;DHT22;4106;52.532;13.408;2022-08-21T02:28:58;18.20;99.90
8130;DHT22;4106;52.532;13.408;2022-08-21T02:31:26;18.10;99.90
8130;DHT22;4106;52.532;13.408;2022-08-21T02:33:54;18.10;99.90
8130;DHT22;4106;52.532;13.408;2022-08-21T02:36:22;18.10;99.90
8130;DHT22;4106;52.532;13.408;2022-08-21T02:38:49;18.00;99.90
8130;DHT22;4106;52.532;13.408;2022-08-21T02:41:17;18.00;99.90
8130;DHT22;4106;52.532;13.408;2022-08-21T02:43:44;18.00;99.90
8130;DHT22;4106;52.532;13.408;2022-08-21T02:46:11;18.00;99.90
8130;DHT22;4106;52.532;13.408;2022-08-21T02:48:38;18.00;99.90
8130;DHT22;4106;52.532;13.408;2022-08-21T02:51:07;17.90;99.90
8130;DHT22;4106;52.532;13.408;2022-08-21T02:53:33;17.90;99.90
8130;DHT22;4106;52.532;13.408;2022-08-21T02:56:01;17.80;99.90
8130;DHT22;4106;52.532;13.408;2022-08-21T02:58:28;17.80;99.90
8130;DHT22;4106;52.532;13.408;2022-08-21T03:00:54;17.80;99.90
8130;DHT22;4106;52.532;13.408;2022-08-21T03:03:21;17.70;99.90
8130;DHT22;4106;52.532;13.408;2022-08-21T03:05:48;17.70;99.90
8130;DHT22;4106;52.532;13.408;2022-08-21T03:08:16;17.70;99.90
8130;DHT22;4106;52.532;13.408;2022-08-21T03:10:45;17.70;99.90
8130;DHT22;4106;52.532;13.408;2022-08-21T03:13:11;17.60;99.90
8130;DHT22;4106;52.532;13.408;2022-08-21T03:15:38;17.70;99.90
8130;DHT22;4106;52.532;13.408;2022-08-21T03:18:06;17.70;99.90
8130;DHT22;4106;52.532;13.408;2022-08-21T03:20:34;17.60;99.90
8130;DHT22;4106;52.532;13.408;2022-08-21T03:23:02;17.60;99.90
8130;DHT22;4106;52.532;13.408;2022-08-21T03:25:29;17.60;99.90
8130;DHT22;4106;52.532;13.408;2022-08-21T03:27:58;17.60;99.90
8130;DHT22;4106;52.532;13.408;2022-08-21T03:30:25;17.50;99.90
8130;DHT22;4106;52.532;13.408;2022-08-21T03:32:53;17.50;99.90
8130;DHT22;4106;52.532;13.408;2022-08-21T03:35:20;17.50;99.90
8130;DHT22;4106;52.532;13.408;2022-08-21T03:37:48;17.50;99.90
8130;DHT22;4106;52.532;13.408;2022-08-21T03:40:17;17.50;99.90
8130;DHT22;4106;52.532;13.408;2022-08-21T03:42:42;17.50;99.90
8130;DHT22;4106;52.532;13.408;2022-08-21T03:45:10;17.50;99.90
8130;DHT22;4106;52.532;13.408;2022-08-21T03:47:37;17.50;99.90
8130;DHT22;4106;52.532;13.408;2022-08-21T03:50:05;17.40;99.90
8130;DHT22;4106;52.532;13.408;2022-08-21T03:52:32;17.40;99.90
8130;DHT22;4106;52.532;13.408;2022-08-21T03:54:59;17.30;99.90
8130;DHT22;4106;52.532;13.408;2022-08-21T03:57:26;17.40;99.90
8130;DHT22;4106;52.532;13.408;2022-08-21T03:59:54;17.30;99.90
8130;DHT22;4106;52.532;13.408;2022-08-21T04:02:21;17.30;99.90
8130;DHT22;4106;52.532;13.408;2022-08-21T04:04:49;17.20;99.90
8130;DHT22;4106;52.532;13.408;2022-08-21T04:07:16;17.20;99.90
8130;DHT22;4106;52.532;13.408;2022-08-21T04:09:44;17.20;99.90
8130;DHT22;4106;52.532;13.408;2022-08-21T04:12:12;17.20;99.90
8130;DHT22;4106;52.532;13.408;2022-08-21T04:14:39;17.20;99.90
8130;DHT22;4106;52.532;13.408;2022-08-21T04:17:07;17.20;99.90
8130;DHT22;4106;52.532;13.408;2022-08-21T04:19:34;17.20;99.90
8130;DHT22;4106;52.532;13.408;2022-08-21T04:22:01;17.20;99.90
8130;DHT22;4106;52.532;13.408;2022-08-21T04:24:28;17.20;99.90
8130;DHT22;4106;52.532;13.408;2022-08-21T04:26:55;17.20;99.90
8130;DHT22;4106;52.532;13.408;2022-08-21T04:29:23;17.20;99.90
8130;DHT22;4106;52.532;13.408;2022-08-21T04:31:50;17.10;99.90
8130;DHT22;4106;52.532;13.408;2022-08-21T04:34:17;17.20;99.90
8130;DHT22;4106;52.532;13.408;2022-08-21T04:36:44;17.20;99.90
8130;DHT22;4106;52.532;13.408;2022-08-21T04:39:12;17.30;99.90
8130;DHT22;4106;52.532;13.408;2022-08-21T04:41:40;17.30;99.90
8130;DHT22;4106;52.532;13.408;2022-08-21T04:44:08;17.40;99.90
8130;DHT22;4106;52.532;13.408;2022-08-21T04:46:36;17.30;99.90
8130;DHT22;4106;52.532;13.408;2022-08-21T04:49:03;17.40;99.90
8130;DHT22;4106;52.532;13.408;2022-08-21T04:51:32;17.50;99.90
8130;DHT22;4106;52.532;13.408;2022-08-21T04:54:10;17.50;99.90
8130;DHT22;4106;52.532;13.408;2022-08-21T04:56:45;17.50;99.90
8130;DHT22;4106;52.532;13.408;2022-08-21T04:59:17;17.50;99.90
8130;DHT22;4106;52.532;13.408;2022-08-21T05:01:44;17.50;99.90
8130;DHT22;4106;52.532;13.408;2022-08-21T05:04:12;17.50;99.90
8130;DHT22;4106;52.532;13.408;2022-08-21T05:06:38;17.60;99.90
8130;DHT22;4106;52.532;13.408;2022-08-21T05:09:05;17.60;99.90
8130;DHT22;4106;52.532;13.408;2022-08-21T05:11:32;17.50;99.90
8130;DHT22;4106;52.532;13.408;2022-08-21T05:13:59;17.50;99.90
8130;DHT22;4106;52.532;13.408;2022-08-21T05:16:27;17.60;99.90
8130;DHT22;4106;52.532;13.408;2022-08-21T05:18:55;17.60;99.90
8130;DHT22;4106;52.532;13.408;2022-08-21T05:21:23;17.70;99.90
8130;DHT22;4106;52.532;13.408;2022-08-21T05:23:51;17.60;99.90
8130;DHT22;4106;52.532;13.408;2022-08-21T05:26:18;17.60;99.90
8130;DHT22;4106;52.532;13.408;2022-08-21T05:28:46;17.70;99.90
8130;DHT22;4106;52.532;13.408;2022-08-21T05:31:14;17.80;99.90
8130;DHT22;4106;52.532;13.408;2022-08-21T05:33:41;17.70;99.90
8130;DHT22;4106;52.532;13.408;2022-08-21T05:36:09;17.80;99.90
8130;DHT22;4106;52.532;13.408;2022-08-21T05:38:36;17.80;99.90
8130;DHT22;4106;52.532;13.408;2022-08-21T05:41:03;17.80;99.90
8130;DHT22;4106;52.532;13.408;2022-08-21T05:43:31;17.80;99.90
8130;DHT22;4106;52.532;13.408;2022-08-21T05:45:59;17.90;99.90
8130;DHT22;4106;52.532;13.408;2022-08-21T05:48:27;17.90;99.90
8130;DHT22;4106;52.532;13.408;2022-08-21T05:50:55;18.00;99.90
8130;DHT22;4106;52.532;13.408;2022-08-21T05:53:23;18.00;99.90
8130;DHT22;4106;52.532;13.408;2022-08-21T05:55:51;18.10;99.90
8130;DHT22;4106;52.532;13.408;2022-08-21T05:58:19;18.10;99.90
8130;DHT22;4106;52.532;13.408;2022-08-21T06:00:46;18.20;99.90
8130;DHT22;4106;52.532;13.408;2022-08-21T06:03:15;18.10;99.90
8130;DHT22;4106;52.532;13.408;2022-08-21T06:05:42;18.10;99.90
8130;DHT22;4106;52.532;13.408;2022-08-21T06:08:09;18.20;99.90
8130;DHT22;4106;52.532;13.408;2022-08-21T06:10:36;18.10;99.90
8130;DHT22;4106;52.532;13.408;2022-08-21T06:13:04;18.30;99.90
8130;DHT22;4106;52.532;13.408;2022-08-21T06:15:32;18.40;99.90
8130;DHT22;4106;52.532;13.408;2022-08-21T06:18:00;18.40;99.90
8130;DHT22;4106;52.532;13.408;2022-08-21T06:20:28;18.30;99.90
8130;DHT22;4106;52.532;13.408;2022-08-21T06:22:55;18.30;99.90
8130;DHT22;4106;52.532;13.408;2022-08-21T06:25:22;18.30;99.90
8130;DHT22;4106;52.532;13.408;2022-08-21T06:27:50;18.40;99.90
8130;DHT22;4106;52.532;13.408;2022-08-21T06:30:17;18.40;99.90
8130;DHT22;4106;52.532;13.408;2022-08-21T06:32:45;18.60;99.90
8130;DHT22;4106;52.532;13.408;2022-08-21T06:35:12;18.60;99.90
8130;DHT22;4106;52.532;13.408;2022-08-21T06:37:39;18.70;99.90
8130;DHT22;4106;52.532;13.408;2022-08-21T06:40:07;18.90;99.90
8130;DHT22;4106;52.532;13.408;2022-08-21T06:42:34;18.90;99.90
8130;DHT22;4106;52.532;13.408;2022-08-21T06:45:03;18.80;99.90
8130;DHT22;4106;52.532;13.408;2022-08-21T06:47:30;18.90;99.90
8130;DHT22;4106;52.532;13.408;2022-08-21T06:49:58;19.10;99.90
8130;DHT22;4106;52.532;13.408;2022-08-21T06:52:25;19.00;99.90
8130;DHT22;4106;52.532;13.408;2022-08-21T06:54:52;19.20;99.90
8130;DHT22;4106;52.532;13.408;2022-08-21T06:57:20;19.20;99.90
8130;DHT22;4106;52.532;13.408;2022-08-21T06:59:48;19.40;99.90
8130;DHT22;4106;52.532;13.408;2022-08-21T07:02:15;19.40;99.90
8130;DHT22;4106;52.532;13.408;2022-08-21T07:04:43;19.40;99.90
8130;DHT22;4106;52.532;13.408;2022-08-21T07:07:11;19.50;99.90
8130;DHT22;4106;52.532;13.408;2022-08-21T07:09:39;19.70;99.90
8130;DHT22;4106;52.532;13.408;2022-08-21T07:12:07;19.70;99.90
8130;DHT22;4106;52.532;13.408;2022-08-21T07:14:35;19.70;99.90
8130;DHT22;4106;52.532;13.408;2022-08-21T07:17:03;19.60;99.90
8130;DHT22;4106;52.532;13.408;2022-08-21T07:19:30;19.60;99.90
8130;DHT22;4106;52.532;13.408;2022-08-21T07:21:58;19.70;99.90
8130;DHT22;4106;52.532;13.408;2022-08-21T07:24:25;19.90;99.90
8130;DHT22;4106;52.532;13.408;2022-08-21T07:26:52;20.10;99.90
8130;DHT22;4106;52.532;13.408;2022-08-21T07:29:19;20.10;99.90
8130;DHT22;4106;52.532;13.408;2022-08-21T07:31:46;20.10;99.90
8130;DHT22;4106;52.532;13.408;2022-08-21T07:34:14;20.20;99.90
8130;DHT22;4106;52.532;13.408;2022-08-21T07:36:41;20.30;99.80
8130;DHT22;4106;52.532;13.408;2022-08-21T07:39:08;20.30;99.40
8130;DHT22;4106;52.532;13.408;2022-08-21T07:41:35;20.40;98.60
8130;DHT22;4106;52.532;13.408;2022-08-21T07:44:02;20.50;98.10
8130;DHT22;4106;52.532;13.408;2022-08-21T07:46:29;20.60;96.70
8130;DHT22;4106;52.532;13.408;2022-08-21T07:48:57;20.60;96.00
8130;DHT22;4106;52.532;13.408;2022-08-21T07:51:25;20.50;95.50
8130;DHT22;4106;52.532;13.408;2022-08-21T07:53:51;20.60;95.00
8130;DHT22;4106;52.532;13.408;2022-08-21T07:56:18;20.50;94.90
8130;DHT22;4106;52.532;13.408;2022-08-21T07:58:46;20.60;94.20
8130;DHT22;4106;52.532;13.408;2022-08-21T08:01:14;20.80;93.70
8130;DHT22;4106;52.532;13.408;2022-08-21T08:03:42;21.00;93.10
8130;DHT22;4106;52.532;13.408;2022-08-21T08:06:09;21.00;93.10
8130;DHT22;4106;52.532;13.408;2022-08-21T08:08:37;21.10;92.90
8130;DHT22;4106;52.532;13.408;2022-08-21T08:11:04;21.20;92.00
8130;DHT22;4106;52.532;13.408;2022-08-21T08:13:31;21.00;91.60
8130;DHT22;4106;52.532;13.408;2022-08-21T08:15:58;20.90;92.20
8130;DHT22;4106;52.532;13.408;2022-08-21T08:18:25;21.00;91.70
8130;DHT22;4106;52.532;13.408;2022-08-21T08:20:53;21.00;91.30
8130;DHT22;4106;52.532;13.408;2022-08-21T08:23:20;21.10;91.40
8130;DHT22;4106;52.532;13.408;2022-08-21T08:25:47;21.20;90.60
8130;DHT22;4106;52.532;13.408;2022-08-21T08:28:14;21.30;90.90
8130;DHT22;4106;52.532;13.408;2022-08-21T08:30:42;21.40;89.50
8130;DHT22;4106;52.532;13.408;2022-08-21T08:33:10;21.40;89.50
8130;DHT22;4106;52.532;13.408;2022-08-21T08:35:37;21.50;87.70
8130;DHT22;4106;52.532;13.408;2022-08-21T08:38:04;21.60;87.50
8130;DHT22;4106;52.532;13.408;2022-08-21T08:40:39;21.70;87.20
8130;DHT22;4106;52.532;13.408;2022-08-21T08:43:02;21.80;87.30
8130;DHT22;4106;52.532;13.408;2022-08-21T08:45:30;21.80;86.20
8130;DHT22;4106;52.532;13.408;2022-08-21T08:47:58;21.70;85.10
8130;DHT22;4106;52.532;13.408;2022-08-21T08:50:27;21.70;85.30
8130;DHT22;4106;52.532;13.408;2022-08-21T08:52:54;21.70;84.80
8130;DHT22;4106;52.532;13.408;2022-08-21T08:55:21;21.80;85.10
8130;DHT22;4106;52.532;13.408;2022-08-21T08:57:48;22.10;84.90
8130;DHT22;4106;52.532;13.408;2022-08-21T09:00:17;22.00;84.00
8130;DHT22;4106;52.532;13.408;2022-08-21T09:02:44;22.10;83.30
8130;DHT22;4106;52.532;13.408;2022-08-21T09:05:18;22.00;83.20
8130;DHT22;4106;52.532;13.408;2022-08-21T09:07:40;21.90;83.70
8130;DHT22;4106;52.532;13.408;2022-08-21T09:10:13;22.10;83.40
8130;DHT22;4106;52.532;13.408;2022-08-21T09:12:49;22.40;81.90
8130;DHT22;4106;52.532;13.408;2022-08-21T09:15:31;22.50;81.50
8130;DHT22;4106;52.532;13.408;2022-08-21T09:18:20;22.40;81.10
8130;DHT22;4106;52.532;13.408;2022-08-21T09:21:02;22.60;83.20
8130;DHT22;4106;52.532;13.408;2022-08-21T09:23:46;22.70;80.50
8130;DHT22;4106;52.532;13.408;2022-08-21T09:26:13;22.70;80.10
8130;DHT22;4106;52.532;13.408;2022-08-21T09:28:39;23.10;79.30
8130;DHT22;4106;52.532;13.408;2022-08-21T09:31:16;23.10;76.60
8130;DHT22;4106;52.532;13.408;2022-08-21T09:33:42;23.10;76.20
8130;DHT22;4106;52.532;13.408;2022-08-21T09:36:10;23.00;76.40
8130;DHT22;4106;52.532;13.408;2022-08-21T09:38:37;22.90;76.00
8130;DHT22;4106;52.532;13.408;2022-08-21T09:41:06;22.90;76.10
8130;DHT22;4106;52.532;13.408;2022-08-21T09:43:32;22.80;76.00
8130;DHT22;4106;52.532;13.408;2022-08-21T09:46:04;23.00;76.00
8130;DHT22;4106;52.532;13.408;2022-08-21T09:48:29;23.00;74.80
8130;DHT22;4106;52.532;13.408;2022-08-21T09:51:15;23.10;73.30
8130;DHT22;4106;52.532;13.408;2022-08-21T09:53:43;23.00;73.10
8130;DHT22;4106;52.532;13.408;2022-08-21T09:58:48;23.40;70.80
8130;DHT22;4106;52.532;13.408;2022-08-21T10:01:20;23.40;69.50
8130;DHT22;4106;52.532;13.408;2022-08-21T10:03:46;23.40;69.50
8130;DHT22;4106;52.532;13.408;2022-08-21T10:06:21;23.30;70.50
8130;DHT22;4106;52.532;13.408;2022-08-21T10:08:47;23.50;70.60
8130;DHT22;4106;52.532;13.408;2022-08-21T10:11:15;23.60;70.10
8130;DHT22;4106;52.532;13.408;2022-08-21T10:13:54;23.60;69.70
8130;DHT22;4106;52.532;13.408;2022-08-21T10:16:19;23.90;69.80
8130;DHT22;4106;52.532;13.408;2022-08-21T10:22:00;23.90;69.70
8130;DHT22;4106;52.532;13.408;2022-08-21T10:24:44;23.30;68.20
8130;DHT22;4106;52.532;13.408;2022-08-21T10:27:33;23.30;68.20
8130;DHT22;4106;52.532;13.408;2022-08-21T10:30:31;23.90;68.20
8130;DHT22;4106;52.532;13.408;2022-08-21T10:32:59;23.90;68.20
8130;DHT22;4106;52.532;13.408;2022-08-21T10:35:28;23.90;68.20
8130;DHT22;4106;52.532;13.408;2022-08-21T10:39:17;24.00;65.80
8130;DHT22;4106;52.532;13.408;2022-08-21T10:41:05;24.00;65.70
8130;DHT22;4106;52.532;13.408;2022-08-21T10:43:59;23.40;63.70
8130;DHT22;4106;52.532;13.408;2022-08-21T10:47:24;23.30;64.90
8130;DHT22;4106;52.532;13.408;2022-08-21T10:49:38;23.70;64.90
8130;DHT22;4106;52.532;13.408;2022-08-21T10:55:16;23.80;66.00
8130;DHT22;4106;52.532;13.408;2022-08-21T10:57:49;23.70;64.60
8130;DHT22;4106;52.532;13.408;2022-08-21T11:00:43;23.60;64.60
8130;DHT22;4106;52.532;13.408;2022-08-21T11:03:13;23.80;62.90
8130;DHT22;4106;52.532;13.408;2022-08-21T11:06:05;23.90;62.60
8130;DHT22;4106;52.532;13.408;2022-08-21T11:08:42;23.80;62.50
8130;DHT22;4106;52.532;13.408;2022-08-21T11:11:44;23.70;62.00
8130;DHT22;4106;52.532;13.408;2022-08-21T11:17:15;23.90;61.20
8130;DHT22;4106;52.532;13.408;2022-08-21T11:19:51;24.00;60.00
8130;DHT22;4106;52.532;13.408;2022-08-21T11:22:57;24.00;58.30
8130;DHT22;4106;52.532;13.408;2022-08-21T11:25:40;23.70;57.90
8130;DHT22;4106;52.532;13.408;2022-08-21T11:31:35;23.80;57.10
8130;DHT22;4106;52.532;13.408;2022-08-21T11:43:07;24.40;54.30
8130;DHT22;4106;52.532;13.408;2022-08-21T11:45:52;24.40;54.30
8130;DHT22;4106;52.532;13.408;2022-08-21T11:48:53;24.70;56.00
8130;DHT22;4106;52.532;13.408;2022-08-21T11:51:40;24.90;54.60
8130;DHT22;4106;52.532;13.408;2022-08-21T11:54:34;24.90;55.00
8130;DHT22;4106;52.532;13.408;2022-08-21T11:57:26;25.00;54.90
8130;DHT22;4106;52.532;13.408;2022-08-21T12:00:07;25.00;54.90
8130;DHT22;4106;52.532;13.408;2022-08-21T12:02:49;25.10;53.30
8130;DHT22;4106;52.532;13.408;2022-08-21T12:05:30;25.10;53.40
8130;DHT22;4106;52.532;13.408;2022-08-21T12:08:11;25.10;53.40
8130;DHT22;4106;52.532;13.408;2022-08-21T12:13:51;25.30;52.80
8130;DHT22;4106;52.532;13.408;2022-08-21T12:16:30;24.90;51.60
8130;DHT22;4106;52.532;13.408;2022-08-21T12:22:30;24.80;51.60
8130;DHT22;4106;52.532;13.408;2022-08-21T12:25:15;24.70;51.50
8130;DHT22;4106;52.532;13.408;2022-08-21T12:27:51;24.90;51.50
8130;DHT22;4106;52.532;13.408;2022-08-21T12:30:56;25.00;52.10
8130;DHT22;4106;52.532;13.408;2022-08-21T12:33:41;25.30;52.10
8130;DHT22;4106;52.532;13.408;2022-08-21T12:36:22;25.40;51.40
8130;DHT22;4106;52.532;13.408;2022-08-21T12:39:00;25.10;50.20
8130;DHT22;4106;52.532;13.408;2022-08-21T12:41:57;25.10;49.80
8130;DHT22;4106;52.532;13.408;2022-08-21T12:44:34;25.40;49.80
8130;DHT22;4106;52.532;13.408;2022-08-21T12:48:01;25.60;49.40
8130;DHT22;4106;52.532;13.408;2022-08-21T12:50:21;25.60;49.40
8130;DHT22;4106;52.532;13.408;2022-08-21T12:52:59;25.80;48.10
8130;DHT22;4106;52.532;13.408;2022-08-21T12:55:34;26.40;47.10
8130;DHT22;4106;52.532;13.408;2022-08-21T12:58:20;26.40;47.10
8130;DHT22;4106;52.532;13.408;2022-08-21T13:01:02;26.50;46.30
8130;DHT22;4106;52.532;13.408;2022-08-21T13:03:47;26.50;46.30
8130;DHT22;4106;52.532;13.408;2022-08-21T13:06:54;26.60;47.60
8130;DHT22;4106;52.532;13.408;2022-08-21T13:09:48;26.80;50.00
8130;DHT22;4106;52.532;13.408;2022-08-21T13:12:25;27.30;48.30
8130;DHT22;4106;52.532;13.408;2022-08-21T13:15:08;27.40;48.00
8130;DHT22;4106;52.532;13.408;2022-08-21T13:17:59;27.40;47.50
8130;DHT22;4106;52.532;13.408;2022-08-21T13:20:39;28.30;47.30
8130;DHT22;4106;52.532;13.408;2022-08-21T13:23:19;29.20;46.70
8130;DHT22;4106;52.532;13.408;2022-08-21T13:25:42;29.10;46.80
8130;DHT22;4106;52.532;13.408;2022-08-21T13:28:11;29.00;45.20
8130;DHT22;4106;52.532;13.408;2022-08-21T13:30:39;28.60;45.30
8130;DHT22;4106;52.532;13.408;2022-08-21T13:33:06;28.90;45.90
8130;DHT22;4106;52.532;13.408;2022-08-21T13:35:44;29.60;44.70
8130;DHT22;4106;52.532;13.408;2022-08-21T13:38:04;30.10;45.00
8130;DHT22;4106;52.532;13.408;2022-08-21T13:40:32;30.50;43.90
8130;DHT22;4106;52.532;13.408;2022-08-21T13:42:59;31.00;43.30
8130;DHT22;4106;52.532;13.408;2022-08-21T13:45:30;30.40;43.20
8130;DHT22;4106;52.532;13.408;2022-08-21T13:47:55;30.40;43.20
8130;DHT22;4106;52.532;13.408;2022-08-21T13:50:23;29.10;44.50
8130;DHT22;4106;52.532;13.408;2022-08-21T13:52:54;27.90;45.30
8130;DHT22;4106;52.532;13.408;2022-08-21T13:55:16;27.30;47.20
8130;DHT22;4106;52.532;13.408;2022-08-21T13:57:43;27.10;47.80
8130;DHT22;4106;52.532;13.408;2022-08-21T14:00:20;26.90;48.00
8130;DHT22;4106;52.532;13.408;2022-08-21T14:02:48;26.40;48.50
8130;DHT22;4106;52.532;13.408;2022-08-21T14:05:16;27.20;48.70
8130;DHT22;4106;52.532;13.408;2022-08-21T14:07:42;29.80;46.00
8130;DHT22;4106;52.532;13.408;2022-08-21T14:10:15;31.10;44.70
8130;DHT22;4106;52.532;13.408;2022-08-21T14:12:43;29.80;44.10
8130;DHT22;4106;52.532;13.408;2022-08-21T14:15:12;28.10;46.60
8130;DHT22;4106;52.532;13.408;2022-08-21T14:17:38;28.10;46.60
8130;DHT22;4106;52.532;13.408;2022-08-21T14:20:06;26.80;48.70
8130;DHT22;4106;52.532;13.408;2022-08-21T14:22:44;26.80;48.70
8130;DHT22;4106;52.532;13.408;2022-08-21T14:25:12;26.20;49.10
8130;DHT22;4106;52.532;13.408;2022-08-21T14:27:43;26.20;49.50
8130;DHT22;4106;52.532;13.408;2022-08-21T14:30:11;26.10;49.70
8130;DHT22;4106;52.532;13.408;2022-08-21T14:32:39;26.10;49.70
8130;DHT22;4106;52.532;13.408;2022-08-21T14:35:05;25.90;50.10
8130;DHT22;4106;52.532;13.408;2022-08-21T14:37:32;25.90;49.80
8130;DHT22;4106;52.532;13.408;2022-08-21T14:39:59;26.30;49.90
8130;DHT22;4106;52.532;13.408;2022-08-21T14:42:26;26.10;49.60
8130;DHT22;4106;52.532;13.408;2022-08-21T14:44:54;26.00;50.10
8130;DHT22;4106;52.532;13.408;2022-08-21T14:47:22;25.70;50.80
8130;DHT22;4106;52.532;13.408;2022-08-21T14:49:49;25.60;51.10
8130;DHT22;4106;52.532;13.408;2022-08-21T14:52:16;25.60;51.30
8130;DHT22;4106;52.532;13.408;2022-08-21T14:54:43;25.50;50.80
8130;DHT22;4106;52.532;13.408;2022-08-21T14:57:11;25.40;51.20
8130;DHT22;4106;52.532;13.408;2022-08-21T14:59:38;25.30;51.60
8130;DHT22;4106;52.532;13.408;2022-08-21T15:02:05;25.20;52.10
8130;DHT22;4106;52.532;13.408;2022-08-21T15:04:33;25.10;52.30
8130;DHT22;4106;52.532;13.408;2022-08-21T15:07:00;25.10;52.80
8130;DHT22;4106;52.532;13.408;2022-08-21T15:09:28;25.10;52.80
8130;DHT22;4106;52.532;13.408;2022-08-21T15:11:57;25.00;52.50
8130;DHT22;4106;52.532;13.408;2022-08-21T15:14:26;24.90;53.20
8130;DHT22;4106;52.532;13.408;2022-08-21T15:16:52;24.90;52.80
8130;DHT22;4106;52.532;13.408;2022-08-21T15:19:19;24.90;53.20
8130;DHT22;4106;52.532;13.408;2022-08-21T15:21:46;24.90;53.30
8130;DHT22;4106;52.532;13.408;2022-08-21T15:24:13;24.90;53.40
8130;DHT22;4106;52.532;13.408;2022-08-21T15:26:40;24.90;53.60
8130;DHT22;4106;52.532;13.408;2022-08-21T15:29:08;24.80;53.70
8130;DHT22;4106;52.532;13.408;2022-08-21T15:31:36;24.90;53.40
8130;DHT22;4106;52.532;13.408;2022-08-21T15:34:03;24.90;53.70
8130;DHT22;4106;52.532;13.408;2022-08-21T15:36:31;25.10;53.50
8130;DHT22;4106;52.532;13.408;2022-08-21T15:38:59;25.20;53.30
8130;DHT22;4106;52.532;13.408;2022-08-21T15:41:27;25.20;53.30
8130;DHT22;4106;52.532;13.408;2022-08-21T15:43:54;25.20;53.20
8130;DHT22;4106;52.532;13.408;2022-08-21T15:46:21;25.10;53.20
8130;DHT22;4106;52.532;13.408;2022-08-21T15:48:48;25.00;53.50
8130;DHT22;4106;52.532;13.408;2022-08-21T15:51:16;24.90;53.50
8130;DHT22;4106;52.532;13.408;2022-08-21T15:53:44;24.90;53.50
8130;DHT22;4106;52.532;13.408;2022-08-21T15:56:32;24.70;53.70
8130;DHT22;4106;52.532;13.408;2022-08-21T15:58:58;24.70;53.70
8130;DHT22;4106;52.532;13.408;2022-08-21T16:01:21;24.60;54.00
8130;DHT22;4106;52.532;13.408;2022-08-21T16:03:49;24.70;54.10
8130;DHT22;4106;52.532;13.408;2022-08-21T16:06:15;24.70;54.00
8130;DHT22;4106;52.532;13.408;2022-08-21T16:08:43;24.50;53.60
8130;DHT22;4106;52.532;13.408;2022-08-21T16:11:11;24.20;53.90
8130;DHT22;4106;52.532;13.408;2022-08-21T16:13:39;24.20;54.50
8130;DHT22;4106;52.532;13.408;2022-08-21T16:16:04;24.40;54.30
8130;DHT22;4106;52.532;13.408;2022-08-21T16:18:32;24.40;53.90
8130;DHT22;4106;52.532;13.408;2022-08-21T16:21:00;24.20;54.10
8130;DHT22;4106;52.532;13.408;2022-08-21T16:23:27;24.20;54.10
8130;DHT22;4106;52.532;13.408;2022-08-21T16:25:57;24.00;54.40
8130;DHT22;4106;52.532;13.408;2022-08-21T16:28:22;24.00;54.40
8130;DHT22;4106;52.532;13.408;2022-08-21T16:30:50;23.90;54.80
8130;DHT22;4106;52.532;13.408;2022-08-21T16:33:31;23.80;54.40
8130;DHT22;4106;52.532;13.408;2022-08-21T16:35:53;23.80;54.60